sensor_id;sensor_type;location;lat;lon;timestamp;temperature;humidity
58951;DHT22;44730;53.158;6.398;2023-04-06T00:01:39;1.60;99.90
58951;DHT22;44730;53.158;6.398;2023-04-06T00:04:05;1.60;99.90
58951;DHT22;44730;53.158;6.398;2023-04-06T00:06:31;1.60;99.90
58951;DHT22;44730;53.158;6.398;2023-04-06T00:08:58;1.60;99.90
58951;DHT22;44730;53.158;6.398;2023-04-06T00:11:26;1.50;99.90
58951;DHT22;44730;53.158;6.398;2023-04-06T00:13:52;1.60;99.90
58951;DHT22;44730;53.158;6.398;2023-04-06T00:16:18;1.40;99.90
58951;DHT22;44730;53.158;6.398;2023-04-06T00:18:44;1.40;99.90
58951;DHT22;44730;53.158;6.398;2023-04-06T00:21:13;1.40;99.90
58951;DHT22;44730;53.158;6.398;2023-04-06T00:23:40;1.40;99.90
58951;DHT22;44730;53.158;6.398;2023-04-06T00:26:07;1.30;99.90
58951;DHT22;44730;53.158;6.398;2023-04-06T00:28:35;1.30;99.90
58951;DHT22;44730;53.158;6.398;2023-04-06T00:31:01;1.30;99.90
58951;DHT22;44730;53.158;6.398;2023-04-06T00:33:26;1.30;99.90
58951;DHT22;44730;53.158;6.398;2023-04-06T00:35:52;1.30;99.90
58951;DHT22;44730;53.158;6.398;2023-04-06T00:38:19;1.30;99.90
58951;DHT22;44730;53.158;6.398;2023-04-06T00:40:45;1.40;99.90
58951;DHT22;44730;53.158;6.398;2023-04-06T00:43:11;1.40;99.90
58951;DHT22;44730;53.158;6.398;2023-04-06T00:45:41;1.30;99.90
58951;DHT22;44730;53.158;6.398;2023-04-06T00:48:07;1.30;99.90
58951;DHT22;44730;53.158;6.398;2023-04-06T00:50:33;1.30;99.90
58951;DHT22;44730;53.158;6.398;2023-04-06T00:52:59;1.30;99.90
58951;DHT22;44730;53.158;6.398;2023-04-06T00:55:29;1.30;99.90
58951;DHT22;44730;53.158;6.398;2023-04-06T00:57:57;1.30;99.90
58951;DHT22;44730;53.158;6.398;2023-04-06T01:00:24;1.40;99.90
58951;DHT22;44730;53.158;6.398;2023-04-06T01:02:50;1.30;99.90
58951;DHT22;44730;53.158;6.398;2023-04-06T01:05:16;1.20;99.90
58951;DHT22;44730;53.158;6.398;2023-04-06T01:07:41;1.20;99.90
58951;DHT22;44730;53.158;6.398;2023-04-06T01:10:07;1.20;99.90
58951;DHT22;44730;53.158;6.398;2023-04-06T01:12:33;1.20;99.90
58951;DHT22;44730;53.158;6.398;2023-04-06T01:14:59;1.20;99.90
58951;DHT22;44730;53.158;6.398;2023-04-06T01:17:25;1.20;99.90
58951;DHT22;44730;53.158;6.398;2023-04-06T01:19:51;1.20;99.90
58951;DHT22;44730;53.158;6.398;2023-04-06T01:22:19;1.20;99.90
58951;DHT22;44730;53.158;6.398;2023-04-06T01:24:46;1.20;99.90
58951;DHT22;44730;53.158;6.398;2023-04-06T01:27:13;1.20;99.90
58951;DHT22;44730;53.158;6.398;2023-04-06T01:29:39;1.20;99.90
58951;DHT22;44730;53.158;6.398;2023-04-06T01:32:09;1.10;99.90
58951;DHT22;44730;53.158;6.398;2023-04-06T01:34:35;1.10;99.90
58951;DHT22;44730;53.158;6.398;2023-04-06T01:37:01;1.10;99.90
58951;DHT22;44730;53.158;6.398;2023-04-06T01:39:27;1.30;99.90
58951;DHT22;44730;53.158;6.398;2023-04-06T01:41:52;1.10;99.90
58951;DHT22;44730;53.158;6.398;2023-04-06T01:44:18;1.10;99.90
58951;DHT22;44730;53.158;6.398;2023-04-06T01:46:44;1.00;99.90
58951;DHT22;44730;53.158;6.398;2023-04-06T01:49:11;1.20;99.90
58951;DHT22;44730;53.158;6.398;2023-04-06T01:51:37;1.00;99.90
58951;DHT22;44730;53.158;6.398;2023-04-06T01:54:03;1.00;99.90
58951;DHT22;44730;53.158;6.398;2023-04-06T01:56:29;1.00;99.90
58951;DHT22;44730;53.158;6.398;2023-04-06T01:58:54;1.00;99.90
58951;DHT22;44730;53.158;6.398;2023-04-06T02:01:21;1.00;99.90
58951;DHT22;44730;53.158;6.398;2023-04-06T02:03:47;0.90;99.90
58951;DHT22;44730;53.158;6.398;2023-04-06T02:06:12;1.00;99.90
58951;DHT22;44730;53.158;6.398;2023-04-06T02:08:38;1.20;99.90
58951;DHT22;44730;53.158;6.398;2023-04-06T02:11:04;0.90;99.90
58951;DHT22;44730;53.158;6.398;2023-04-06T02:13:30;0.90;99.90
58951;DHT22;44730;53.158;6.398;2023-04-06T02:15:55;0.90;99.90
58951;DHT22;44730;53.158;6.398;2023-04-06T02:18:22;0.90;99.90
58951;DHT22;44730;53.158;6.398;2023-04-06T02:20:48;0.90;99.90
58951;DHT22;44730;53.158;6.398;2023-04-06T02:23:14;0.90;99.90
58951;DHT22;44730;53.158;6.398;2023-04-06T02:25:40;0.90;99.90
58951;DHT22;44730;53.158;6.398;2023-04-06T02:28:06;0.90;99.90
58951;DHT22;44730;53.158;6.398;2023-04-06T02:30:32;0.90;99.90
58951;DHT22;44730;53.158;6.398;2023-04-06T02:33:02;1.10;99.90
58951;DHT22;44730;53.158;6.398;2023-04-06T02:35:31;0.80;99.90
58951;DHT22;44730;53.158;6.398;2023-04-06T02:37:57;0.80;99.90
58951;DHT22;44730;53.158;6.398;2023-04-06T02:40:22;0.90;99.90
58951;DHT22;44730;53.158;6.398;2023-04-06T02:42:48;0.80;99.90
58951;DHT22;44730;53.158;6.398;2023-04-06T02:45:14;0.90;99.90
58951;DHT22;44730;53.158;6.398;2023-04-06T02:47:41;0.70;99.90
58951;DHT22;44730;53.158;6.398;2023-04-06T02:50:13;0.70;99.90
58951;DHT22;44730;53.158;6.398;2023-04-06T02:52:38;0.70;99.90
58951;DHT22;44730;53.158;6.398;2023-04-06T02:55:04;0.70;99.90
58951;DHT22;44730;53.158;6.398;2023-04-06T02:57:32;0.60;99.90
58951;DHT22;44730;53.158;6.398;2023-04-06T02:59:58;0.80;99.90
58951;DHT22;44730;53.158;6.398;2023-04-06T03:02:23;0.60;99.90
58951;DHT22;44730;53.158;6.398;2023-04-06T03:04:49;0.60;99.90
58951;DHT22;44730;53.158;6.398;2023-04-06T03:07:15;0.60;99.90
58951;DHT22;44730;53.158;6.398;2023-04-06T03:09:40;0.90;99.90
58951;DHT22;44730;53.158;6.398;2023-04-06T03:12:06;0.90;99.90
58951;DHT22;44730;53.158;6.398;2023-04-06T03:14:32;0.50;99.90
58951;DHT22;44730;53.158;6.398;2023-04-06T03:16:58;0.50;99.90
58951;DHT22;44730;53.158;6.398;2023-04-06T03:19:23;0.80;99.90
58951;DHT22;44730;53.158;6.398;2023-04-06T03:21:49;0.40;99.90
58951;DHT22;44730;53.158;6.398;2023-04-06T03:24:15;0.40;99.90
58951;DHT22;44730;53.158;6.398;2023-04-06T03:26:41;0.40;99.90
58951;DHT22;44730;53.158;6.398;2023-04-06T03:29:07;0.40;99.90
58951;DHT22;44730;53.158;6.398;2023-04-06T03:31:33;0.40;99.90
58951;DHT22;44730;53.158;6.398;2023-04-06T03:33:59;0.30;99.90
58951;DHT22;44730;53.158;6.398;2023-04-06T03:36:24;0.30;99.90
58951;DHT22;44730;53.158;6.398;2023-04-06T03:38:51;0.30;99.90
58951;DHT22;44730;53.158;6.398;2023-04-06T03:41:19;0.30;99.90
58951;DHT22;44730;53.158;6.398;2023-04-06T03:43:45;0.20;99.90
58951;DHT22;44730;53.158;6.398;2023-04-06T03:46:11;0.20;99.90
58951;DHT22;44730;53.158;6.398;2023-04-06T03:48:36;0.70;99.90
58951;DHT22;44730;53.158;6.398;2023-04-06T03:51:02;0.10;99.90
58951;DHT22;44730;53.158;6.398;2023-04-06T03:53:28;0.10;99.90
58951;DHT22;44730;53.158;6.398;2023-04-06T03:55:54;1.10;99.90
58951;DHT22;44730;53.158;6.398;2023-04-06T03:58:19;0.10;99.90
58951;DHT22;44730;53.158;6.398;2023-04-06T04:00:45;0.10;99.90
58951;DHT22;44730;53.158;6.398;2023-04-06T04:03:11;0.10;99.90
58951;DHT22;44730;53.158;6.398;2023-04-06T04:05:37;0.00;99.90
58951;DHT22;44730;53.158;6.398;2023-04-06T04:08:02;0.00;99.90
58951;DHT22;44730;53.158;6.398;2023-04-06T04:10:28;0.00;99.90
58951;DHT22;44730;53.158;6.398;2023-04-06T04:12:54;0.00;99.90
58951;DHT22;44730;53.158;6.398;2023-04-06T04:15:20;-0.10;99.90
58951;DHT22;44730;53.158;6.398;2023-04-06T04:17:46;0.30;99.90
58951;DHT22;44730;53.158;6.398;2023-04-06T04:20:14;0.10;99.90
58951;DHT22;44730;53.158;6.398;2023-04-06T04:22:41;-0.10;99.90
58951;DHT22;44730;53.158;6.398;2023-04-06T04:25:08;-0.20;99.90
58951;DHT22;44730;53.158;6.398;2023-04-06T04:27:33;-0.20;99.90
58951;DHT22;44730;53.158;6.398;2023-04-06T04:30:00;0.00;99.90
58951;DHT22;44730;53.158;6.398;2023-04-06T04:32:26;0.40;99.90
58951;DHT22;44730;53.158;6.398;2023-04-06T04:34:55;-0.20;99.90
58951;DHT22;44730;53.158;6.398;2023-04-06T04:37:21;-0.10;99.90
58951;DHT22;44730;53.158;6.398;2023-04-06T04:39:47;0.00;99.90
58951;DHT22;44730;53.158;6.398;2023-04-06T04:42:13;-0.30;99.90
58951;DHT22;44730;53.158;6.398;2023-04-06T04:44:39;0.00;99.90
58951;DHT22;44730;53.158;6.398;2023-04-06T04:47:05;-0.40;99.90
58951;DHT22;44730;53.158;6.398;2023-04-06T04:49:31;-0.20;99.90
58951;DHT22;44730;53.158;6.398;2023-04-06T04:51:57;-0.40;99.90
58951;DHT22;44730;53.158;6.398;2023-04-06T04:54:22;-0.20;99.90
58951;DHT22;44730;53.158;6.398;2023-04-06T04:56:48;-0.40;99.90
58951;DHT22;44730;53.158;6.398;2023-04-06T04:59:14;-0.40;99.90
58951;DHT22;44730;53.158;6.398;2023-04-06T05:01:40;-0.50;99.90
58951;DHT22;44730;53.158;6.398;2023-04-06T05:04:05;0.00;99.90
58951;DHT22;44730;53.158;6.398;2023-04-06T05:06:31;-0.40;99.90
58951;DHT22;44730;53.158;6.398;2023-04-06T05:08:57;-0.40;99.90
58951;DHT22;44730;53.158;6.398;2023-04-06T05:11:23;-0.40;99.90
58951;DHT22;44730;53.158;6.398;2023-04-06T05:13:48;0.30;99.90
58951;DHT22;44730;53.158;6.398;2023-04-06T05:16:14;-0.30;99.90
58951;DHT22;44730;53.158;6.398;2023-04-06T05:18:40;0.00;99.90
58951;DHT22;44730;53.158;6.398;2023-04-06T05:21:06;0.40;99.90
58951;DHT22;44730;53.158;6.398;2023-04-06T05:23:31;-0.20;99.90
58951;DHT22;44730;53.158;6.398;2023-04-06T05:25:57;-0.10;99.90
58951;DHT22;44730;53.158;6.398;2023-04-06T05:28:23;0.20;99.90
58951;DHT22;44730;53.158;6.398;2023-04-06T05:30:50;0.00;99.90
58951;DHT22;44730;53.158;6.398;2023-04-06T05:33:16;0.40;99.90
58951;DHT22;44730;53.158;6.398;2023-04-06T05:35:43;0.20;99.90
58951;DHT22;44730;53.158;6.398;2023-04-06T05:38:09;0.30;99.90
58951;DHT22;44730;53.158;6.398;2023-04-06T05:40:38;0.30;99.90
58951;DHT22;44730;53.158;6.398;2023-04-06T05:43:06;0.40;99.90
58951;DHT22;44730;53.158;6.398;2023-04-06T05:45:32;0.40;99.90
58951;DHT22;44730;53.158;6.398;2023-04-06T05:47:58;0.50;99.90
58951;DHT22;44730;53.158;6.398;2023-04-06T05:50:24;0.50;99.90
58951;DHT22;44730;53.158;6.398;2023-04-06T05:52:50;0.60;99.90
58951;DHT22;44730;53.158;6.398;2023-04-06T05:55:16;1.00;99.90
58951;DHT22;44730;53.158;6.398;2023-04-06T05:57:42;1.00;99.90
58951;DHT22;44730;53.158;6.398;2023-04-06T06:00:09;1.10;99.90
58951;DHT22;44730;53.158;6.398;2023-04-06T06:02:35;1.00;99.90
58951;DHT22;44730;53.158;6.398;2023-04-06T06:05:02;1.10;99.90
58951;DHT22;44730;53.158;6.398;2023-04-06T06:07:28;1.10;99.90
58951;DHT22;44730;53.158;6.398;2023-04-06T06:09:57;1.20;99.90
58951;DHT22;44730;53.158;6.398;2023-04-06T06:12:27;1.30;99.90
58951;DHT22;44730;53.158;6.398;2023-04-06T06:14:54;1.40;99.90
58951;DHT22;44730;53.158;6.398;2023-04-06T06:17:19;1.40;99.90
58951;DHT22;44730;53.158;6.398;2023-04-06T06:19:45;1.70;99.90
58951;DHT22;44730;53.158;6.398;2023-04-06T06:22:11;1.60;99.90
58951;DHT22;44730;53.158;6.398;2023-04-06T06:24:37;1.70;99.90
58951;DHT22;44730;53.158;6.398;2023-04-06T06:27:03;1.90;99.90
58951;DHT22;44730;53.158;6.398;2023-04-06T06:29:30;2.30;99.90
58951;DHT22;44730;53.158;6.398;2023-04-06T06:31:56;2.20;99.90
58951;DHT22;44730;53.158;6.398;2023-04-06T06:34:22;2.40;99.90
58951;DHT22;44730;53.158;6.398;2023-04-06T06:36:47;2.60;99.90
58951;DHT22;44730;53.158;6.398;2023-04-06T06:39:13;2.90;99.90
58951;DHT22;44730;53.158;6.398;2023-04-06T06:41:39;3.00;99.90
58951;DHT22;44730;53.158;6.398;2023-04-06T06:44:05;3.30;99.90
58951;DHT22;44730;53.158;6.398;2023-04-06T06:46:31;3.50;99.90
58951;DHT22;44730;53.158;6.398;2023-04-06T06:48:58;3.80;99.90
58951;DHT22;44730;53.158;6.398;2023-04-06T06:51:24;4.10;99.90
58951;DHT22;44730;53.158;6.398;2023-04-06T06:53:50;4.30;99.90
58951;DHT22;44730;53.158;6.398;2023-04-06T06:56:15;4.60;99.90
58951;DHT22;44730;53.158;6.398;2023-04-06T06:58:41;4.90;99.90
58951;DHT22;44730;53.158;6.398;2023-04-06T07:01:07;5.20;99.90
58951;DHT22;44730;53.158;6.398;2023-04-06T07:03:32;5.40;99.90
58951;DHT22;44730;53.158;6.398;2023-04-06T07:05:59;5.70;99.90
58951;DHT22;44730;53.158;6.398;2023-04-06T07:08:24;5.90;99.90
58951;DHT22;44730;53.158;6.398;2023-04-06T07:10:52;6.10;99.90
58951;DHT22;44730;53.158;6.398;2023-04-06T07:13:19;6.30;99.90
58951;DHT22;44730;53.158;6.398;2023-04-06T07:15:48;6.50;99.90
58951;DHT22;44730;53.158;6.398;2023-04-06T07:18:14;6.80;99.90
58951;DHT22;44730;53.158;6.398;2023-04-06T07:20:40;6.90;99.90
58951;DHT22;44730;53.158;6.398;2023-04-06T07:23:06;7.10;99.90
58951;DHT22;44730;53.158;6.398;2023-04-06T07:25:32;7.20;99.90
58951;DHT22;44730;53.158;6.398;2023-04-06T07:27:57;7.40;99.90
58951;DHT22;44730;53.158;6.398;2023-04-06T07:30:23;7.60;99.90
58951;DHT22;44730;53.158;6.398;2023-04-06T07:32:51;7.80;99.90
58951;DHT22;44730;53.158;6.398;2023-04-06T07:35:17;8.10;99.90
58951;DHT22;44730;53.158;6.398;2023-04-06T07:37:43;8.30;99.90
58951;DHT22;44730;53.158;6.398;2023-04-06T07:40:09;8.50;99.90
58951;DHT22;44730;53.158;6.398;2023-04-06T07:42:35;8.60;99.90
58951;DHT22;44730;53.158;6.398;2023-04-06T07:45:00;8.80;99.90
58951;DHT22;44730;53.158;6.398;2023-04-06T07:47:26;8.90;99.90
58951;DHT22;44730;53.158;6.398;2023-04-06T07:49:54;9.30;99.90
58951;DHT22;44730;53.158;6.398;2023-04-06T07:52:20;9.50;99.90
58951;DHT22;44730;53.158;6.398;2023-04-06T07:54:45;9.80;99.90
58951;DHT22;44730;53.158;6.398;2023-04-06T07:57:11;10.20;99.90
58951;DHT22;44730;53.158;6.398;2023-04-06T07:59:37;10.40;99.90
58951;DHT22;44730;53.158;6.398;2023-04-06T08:02:03;10.70;99.90
58951;DHT22;44730;53.158;6.398;2023-04-06T08:04:28;11.00;99.10
58951;DHT22;44730;53.158;6.398;2023-04-06T08:06:54;11.20;98.20
58951;DHT22;44730;53.158;6.398;2023-04-06T08:09:20;11.30;96.70
58951;DHT22;44730;53.158;6.398;2023-04-06T08:11:45;11.40;96.70
58951;DHT22;44730;53.158;6.398;2023-04-06T08:14:13;11.60;96.60
58951;DHT22;44730;53.158;6.398;2023-04-06T08:16:39;11.80;96.40
58951;DHT22;44730;53.158;6.398;2023-04-06T08:19:04;11.90;96.20
58951;DHT22;44730;53.158;6.398;2023-04-06T08:21:34;12.20;96.00
58951;DHT22;44730;53.158;6.398;2023-04-06T08:24:01;12.30;92.60
58951;DHT22;44730;53.158;6.398;2023-04-06T08:26:27;12.50;93.00
58951;DHT22;44730;53.158;6.398;2023-04-06T08:28:52;12.60;92.00
58951;DHT22;44730;53.158;6.398;2023-04-06T08:31:18;12.70;91.60
58951;DHT22;44730;53.158;6.398;2023-04-06T08:33:44;12.60;91.30
58951;DHT22;44730;53.158;6.398;2023-04-06T08:36:11;12.70;91.40
58951;DHT22;44730;53.158;6.398;2023-04-06T08:38:37;12.60;90.70
58951;DHT22;44730;53.158;6.398;2023-04-06T08:41:10;12.50;90.30
58951;DHT22;44730;53.158;6.398;2023-04-06T08:43:48;12.60;90.10
58951;DHT22;44730;53.158;6.398;2023-04-06T08:46:14;12.90;90.00
58951;DHT22;44730;53.158;6.398;2023-04-06T08:48:42;13.20;88.00
58951;DHT22;44730;53.158;6.398;2023-04-06T08:51:09;13.60;84.50
58951;DHT22;44730;53.158;6.398;2023-04-06T08:53:35;13.80;85.40
58951;DHT22;44730;53.158;6.398;2023-04-06T08:56:03;14.00;83.60
58951;DHT22;44730;53.158;6.398;2023-04-06T08:58:35;14.30;83.80
58951;DHT22;44730;53.158;6.398;2023-04-06T09:01:06;14.50;82.50
58951;DHT22;44730;53.158;6.398;2023-04-06T09:03:38;14.20;81.20
58951;DHT22;44730;53.158;6.398;2023-04-06T09:06:06;14.00;81.70
58951;DHT22;44730;53.158;6.398;2023-04-06T09:08:37;13.90;80.00
58951;DHT22;44730;53.158;6.398;2023-04-06T09:11:04;13.80;80.10
58951;DHT22;44730;53.158;6.398;2023-04-06T09:13:30;13.80;79.90
58951;DHT22;44730;53.158;6.398;2023-04-06T09:16:04;13.70;79.00
58951;DHT22;44730;53.158;6.398;2023-04-06T09:18:31;13.60;79.00
58951;DHT22;44730;53.158;6.398;2023-04-06T09:21:06;13.40;78.40
58951;DHT22;44730;53.158;6.398;2023-04-06T09:23:34;13.40;78.60
58951;DHT22;44730;53.158;6.398;2023-04-06T09:26:16;13.40;79.40
58951;DHT22;44730;53.158;6.398;2023-04-06T09:28:49;13.30;76.20
58951;DHT22;44730;53.158;6.398;2023-04-06T09:31:20;13.60;79.40
58951;DHT22;44730;53.158;6.398;2023-04-06T09:33:47;13.70;79.70
58951;DHT22;44730;53.158;6.398;2023-04-06T09:36:14;13.70;78.60
58951;DHT22;44730;53.158;6.398;2023-04-06T09:39:03;13.50;77.70
58951;DHT22;44730;53.158;6.398;2023-04-06T09:41:32;13.40;75.70
58951;DHT22;44730;53.158;6.398;2023-04-06T09:44:11;13.40;77.10
58951;DHT22;44730;53.158;6.398;2023-04-06T09:46:42;13.40;74.70
58951;DHT22;44730;53.158;6.398;2023-04-06T09:49:09;13.30;73.70
58951;DHT22;44730;53.158;6.398;2023-04-06T09:51:41;13.30;74.70
58951;DHT22;44730;53.158;6.398;2023-04-06T09:54:08;13.50;73.70
58951;DHT22;44730;53.158;6.398;2023-04-06T09:56:47;13.70;75.10
58951;DHT22;44730;53.158;6.398;2023-04-06T09:59:18;14.10;74.30
58951;DHT22;44730;53.158;6.398;2023-04-06T10:01:47;14.30;73.90
58951;DHT22;44730;53.158;6.398;2023-04-06T10:06:57;14.30;73.00
58951;DHT22;44730;53.158;6.398;2023-04-06T10:09:28;14.30;72.90
58951;DHT22;44730;53.158;6.398;2023-04-06T10:12:02;14.20;73.00
58951;DHT22;44730;53.158;6.398;2023-04-06T10:14:28;14.20;73.90
58951;DHT22;44730;53.158;6.398;2023-04-06T10:16:54;14.30;74.00
58951;DHT22;44730;53.158;6.398;2023-04-06T10:19:28;14.30;74.50
58951;DHT22;44730;53.158;6.398;2023-04-06T10:21:55;14.30;73.00
58951;DHT22;44730;53.158;6.398;2023-04-06T10:24:23;14.60;73.80
58951;DHT22;44730;53.158;6.398;2023-04-06T10:27:02;14.90;73.00
58951;DHT22;44730;53.158;6.398;2023-04-06T10:29:28;15.40;73.40
58951;DHT22;44730;53.158;6.398;2023-04-06T10:31:54;15.90;73.00
58951;DHT22;44730;53.158;6.398;2023-04-06T10:34:21;15.80;70.80
58951;DHT22;44730;53.158;6.398;2023-04-06T10:36:46;16.00;73.20
58951;DHT22;44730;53.158;6.398;2023-04-06T10:39:14;16.20;72.70
58951;DHT22;44730;53.158;6.398;2023-04-06T10:41:49;16.30;72.20
58951;DHT22;44730;53.158;6.398;2023-04-06T10:44:23;16.50;72.40
58951;DHT22;44730;53.158;6.398;2023-04-06T10:46:54;16.50;69.60
58951;DHT22;44730;53.158;6.398;2023-04-06T10:49:20;16.50;68.70
58951;DHT22;44730;53.158;6.398;2023-04-06T10:51:54;16.30;68.80
58951;DHT22;44730;53.158;6.398;2023-04-06T10:54:21;16.40;69.00
58951;DHT22;44730;53.158;6.398;2023-04-06T10:56:47;16.60;68.40
58951;DHT22;44730;53.158;6.398;2023-04-06T10:59:19;16.60;67.50
58951;DHT22;44730;53.158;6.398;2023-04-06T11:01:45;16.70;67.90
58951;DHT22;44730;53.158;6.398;2023-04-06T11:04:19;17.10;68.50
58951;DHT22;44730;53.158;6.398;2023-04-06T11:06:50;17.40;66.80
58951;DHT22;44730;53.158;6.398;2023-04-06T11:09:25;17.60;65.60
58951;DHT22;44730;53.158;6.398;2023-04-06T11:11:52;17.80;67.10
58951;DHT22;44730;53.158;6.398;2023-04-06T11:14:18;17.90;65.90
58951;DHT22;44730;53.158;6.398;2023-04-06T11:16:46;17.40;65.10
58951;DHT22;44730;53.158;6.398;2023-04-06T11:19:14;17.30;64.40
58951;DHT22;44730;53.158;6.398;2023-04-06T11:21:41;17.30;65.80
58951;DHT22;44730;53.158;6.398;2023-04-06T11:26:46;17.00;65.40
58951;DHT22;44730;53.158;6.398;2023-04-06T11:29:15;17.00;65.70
58951;DHT22;44730;53.158;6.398;2023-04-06T11:31:52;16.90;66.40
58951;DHT22;44730;53.158;6.398;2023-04-06T11:34:20;16.70;65.50
58951;DHT22;44730;53.158;6.398;2023-04-06T11:36:48;16.20;64.90
58951;DHT22;44730;53.158;6.398;2023-04-06T11:39:19;16.10;65.30
58951;DHT22;44730;53.158;6.398;2023-04-06T11:41:57;16.10;65.00
58951;DHT22;44730;53.158;6.398;2023-04-06T11:46:58;16.30;62.00
58951;DHT22;44730;53.158;6.398;2023-04-06T11:49:30;16.10;63.10
58951;DHT22;44730;53.158;6.398;2023-04-06T11:51:58;16.30;63.60
58951;DHT22;44730;53.158;6.398;2023-04-06T11:54:37;16.40;62.90
58951;DHT22;44730;53.158;6.398;2023-04-06T11:57:04;16.40;62.00
58951;DHT22;44730;53.158;6.398;2023-04-06T11:59:31;16.40;62.80
58951;DHT22;44730;53.158;6.398;2023-04-06T12:01:58;16.50;62.90
58951;DHT22;44730;53.158;6.398;2023-04-06T12:04:24;16.50;63.40
58951;DHT22;44730;53.158;6.398;2023-04-06T12:06:50;16.40;62.90
58951;DHT22;44730;53.158;6.398;2023-04-06T12:09:19;16.50;63.80
58951;DHT22;44730;53.158;6.398;2023-04-06T12:11:45;16.40;64.20
58951;DHT22;44730;53.158;6.398;2023-04-06T12:14:11;16.30;64.50
58951;DHT22;44730;53.158;6.398;2023-04-06T12:16:37;16.10;64.50
58951;DHT22;44730;53.158;6.398;2023-04-06T12:19:03;16.00;64.90
58951;DHT22;44730;53.158;6.398;2023-04-06T12:21:29;15.90;65.20
58951;DHT22;44730;53.158;6.398;2023-04-06T12:23:57;15.70;65.00
58951;DHT22;44730;53.158;6.398;2023-04-06T12:26:23;15.60;65.20
58951;DHT22;44730;53.158;6.398;2023-04-06T12:28:49;15.30;65.20
58951;DHT22;44730;53.158;6.398;2023-04-06T12:31:20;15.40;66.10
58951;DHT22;44730;53.158;6.398;2023-04-06T12:33:48;15.20;64.30
58951;DHT22;44730;53.158;6.398;2023-04-06T12:36:14;15.10;64.50
58951;DHT22;44730;53.158;6.398;2023-04-06T12:38:41;15.10;65.20
58951;DHT22;44730;53.158;6.398;2023-04-06T12:41:07;15.10;65.20
58951;DHT22;44730;53.158;6.398;2023-04-06T12:43:33;15.30;66.30
58951;DHT22;44730;53.158;6.398;2023-04-06T12:45:59;15.40;66.40
58951;DHT22;44730;53.158;6.398;2023-04-06T12:48:25;15.30;66.20
58951;DHT22;44730;53.158;6.398;2023-04-06T12:51:00;15.00;65.20
58951;DHT22;44730;53.158;6.398;2023-04-06T12:53:26;14.80;65.70
58951;DHT22;44730;53.158;6.398;2023-04-06T12:55:54;14.70;65.90
58951;DHT22;44730;53.158;6.398;2023-04-06T12:58:21;14.70;66.50
58951;DHT22;44730;53.158;6.398;2023-04-06T13:00:48;14.70;67.50
58951;DHT22;44730;53.158;6.398;2023-04-06T13:03:16;14.60;67.20
58951;DHT22;44730;53.158;6.398;2023-04-06T13:05:48;14.60;67.30
58951;DHT22;44730;53.158;6.398;2023-04-06T13:08:15;14.50;68.10
58951;DHT22;44730;53.158;6.398;2023-04-06T13:10:46;14.50;67.90
58951;DHT22;44730;53.158;6.398;2023-04-06T13:13:12;14.50;67.70
58951;DHT22;44730;53.158;6.398;2023-04-06T13:15:38;14.60;68.40
58951;DHT22;44730;53.158;6.398;2023-04-06T13:18:04;14.50;68.00
58951;DHT22;44730;53.158;6.398;2023-04-06T13:20:30;14.50;67.50
58951;DHT22;44730;53.158;6.398;2023-04-06T13:22:56;14.50;68.10
58951;DHT22;44730;53.158;6.398;2023-04-06T13:25:21;14.60;68.00
58951;DHT22;44730;53.158;6.398;2023-04-06T13:27:47;14.80;67.10
58951;DHT22;44730;53.158;6.398;2023-04-06T13:30:14;15.00;67.10
58951;DHT22;44730;53.158;6.398;2023-04-06T13:32:40;15.30;67.20
58951;DHT22;44730;53.158;6.398;2023-04-06T13:35:06;15.50;67.50
58951;DHT22;44730;53.158;6.398;2023-04-06T13:37:33;15.50;66.30
58951;DHT22;44730;53.158;6.398;2023-04-06T13:39:59;15.50;66.30
58951;DHT22;44730;53.158;6.398;2023-04-06T13:42:25;15.40;67.10
58951;DHT22;44730;53.158;6.398;2023-04-06T13:44:53;15.40;67.30
58951;DHT22;44730;53.158;6.398;2023-04-06T13:47:19;15.30;67.70
58951;DHT22;44730;53.158;6.398;2023-04-06T13:49:46;15.20;68.60
58951;DHT22;44730;53.158;6.398;2023-04-06T13:52:13;15.20;68.70
58951;DHT22;44730;53.158;6.398;2023-04-06T13:54:39;15.30;68.70
58951;DHT22;44730;53.158;6.398;2023-04-06T13:57:05;15.60;69.90
58951;DHT22;44730;53.158;6.398;2023-04-06T13:59:35;15.70;70.30
58951;DHT22;44730;53.158;6.398;2023-04-06T14:02:02;15.60;70.80
58951;DHT22;44730;53.158;6.398;2023-04-06T14:04:28;15.50;71.90
58951;DHT22;44730;53.158;6.398;2023-04-06T14:06:54;15.20;71.50
58951;DHT22;44730;53.158;6.398;2023-04-06T14:09:20;14.90;72.40
58951;DHT22;44730;53.158;6.398;2023-04-06T14:11:46;14.60;73.30
58951;DHT22;44730;53.158;6.398;2023-04-06T14:14:12;14.40;73.70
58951;DHT22;44730;53.158;6.398;2023-04-06T14:16:38;14.50;74.70
58951;DHT22;44730;53.158;6.398;2023-04-06T14:19:04;14.60;75.10
58951;DHT22;44730;53.158;6.398;2023-04-06T14:21:29;14.70;75.80
58951;DHT22;44730;53.158;6.398;2023-04-06T14:23:56;14.70;76.50
58951;DHT22;44730;53.158;6.398;2023-04-06T14:26:22;14.50;76.00
58951;DHT22;44730;53.158;6.398;2023-04-06T14:28:48;14.30;77.00
58951;DHT22;44730;53.158;6.398;2023-04-06T14:31:15;14.10;77.60
58951;DHT22;44730;53.158;6.398;2023-04-06T14:33:42;14.00;77.80
58951;DHT22;44730;53.158;6.398;2023-04-06T14:36:08;13.80;77.30
58951;DHT22;44730;53.158;6.398;2023-04-06T14:38:35;13.70;77.50
58951;DHT22;44730;53.158;6.398;2023-04-06T14:41:01;13.60;78.00
58951;DHT22;44730;53.158;6.398;2023-04-06T14:43:27;13.60;78.20
58951;DHT22;44730;53.158;6.398;2023-04-06T14:45:53;13.40;78.10
58951;DHT22;44730;53.158;6.398;2023-04-06T14:48:18;13.20;78.40
58951;DHT22;44730;53.158;6.398;2023-04-06T14:50:54;13.00;79.20
58951;DHT22;44730;53.158;6.398;2023-04-06T14:53:22;12.70;80.20
58951;DHT22;44730;53.158;6.398;2023-04-06T14:55:48;12.50;81.40
58951;DHT22;44730;53.158;6.398;2023-04-06T14:58:17;12.30;81.60
58951;DHT22;44730;53.158;6.398;2023-04-06T15:00:43;12.30;82.10
58951;DHT22;44730;53.158;6.398;2023-04-06T15:03:08;12.10;82.60
58951;DHT22;44730;53.158;6.398;2023-04-06T15:05:34;12.00;83.50
58951;DHT22;44730;53.158;6.398;2023-04-06T15:08:01;12.00;84.20
58951;DHT22;44730;53.158;6.398;2023-04-06T15:10:26;11.90;85.50
58951;DHT22;44730;53.158;6.398;2023-04-06T15:12:52;11.90;85.90
58951;DHT22;44730;53.158;6.398;2023-04-06T15:15:18;11.80;87.20
58951;DHT22;44730;53.158;6.398;2023-04-06T15:17:44;11.80;89.30
58951;DHT22;44730;53.158;6.398;2023-04-06T15:20:09;11.80;91.20
58951;DHT22;44730;53.158;6.398;2023-04-06T15:22:35;11.70;92.00
58951;DHT22;44730;53.158;6.398;2023-04-06T15:25:01;11.60;93.30
58951;DHT22;44730;53.158;6.398;2023-04-06T15:27:27;11.50;94.50
58951;DHT22;44730;53.158;6.398;2023-04-06T15:29:53;11.40;95.20
58951;DHT22;44730;53.158;6.398;2023-04-06T15:32:19;11.30;96.50
58951;DHT22;44730;53.158;6.398;2023-04-06T15:34:45;11.20;98.80
58951;DHT22;44730;53.158;6.398;2023-04-06T15:37:11;11.10;99.90
58951;DHT22;44730;53.158;6.398;2023-04-06T15:39:36;11.10;99.90
58951;DHT22;44730;53.158;6.398;2023-04-06T15:42:02;11.00;99.90
58951;DHT22;44730;53.158;6.398;2023-04-06T15:44:28;10.90;99.90